createdAt,value
2023-04-03T00:00:42.000Z,-0.45
2023-04-03T00:01:42.000Z,-0.29
2023-04-03T00:02:42.000Z,-0.28
2023-04-03T00:03:42.000Z,-0.33
2023-04-03T00:04:42.000Z,-0.36
2023-04-03T00:05:42.000Z,-0.46
2023-04-03T00:06:42.000Z,-0.42
2023-04-03T00:07:42.000Z,-0.35
2023-04-03T00:08:42.000Z,-0.57
2023-04-03T00:09:42.000Z,-0.50
2023-04-03T00:10:42.000Z,-0.56
2023-04-03T00:11:42.000Z,-0.49
2023-04-03T00:12:42.000Z,-0.50
2023-04-03T00:13:42.000Z,-0.49
2023-04-03T00:14:42.000Z,-0.66
2023-04-03T00:15:42.000Z,-0.58
2023-04-03T00:16:42.000Z,-0.64
2023-04-03T00:17:42.000Z,-0.57
2023-04-03T00:18:42.000Z,-0.45
2023-04-03T00:19:42.000Z,-0.60
2023-04-03T00:20:42.000Z,-0.54
2023-04-03T00:21:42.000Z,-0.62
2023-04-03T00:22:42.000Z,-0.58
2023-04-03T00:23:42.000Z,-0.70
2023-04-03T00:24:42.000Z,-0.55
2023-04-03T00:25:42.000Z,-0.56
2023-04-03T00:26:42.000Z,-0.66
2023-04-03T00:27:42.000Z,-0.64
2023-04-03T00:28:42.000Z,-0.58
2023-04-03T00:29:42.000Z,-0.64
2023-04-03T00:30:42.000Z,-0.66
2023-04-03T00:31:42.000Z,-0.77
2023-04-03T00:32:42.000Z,-0.70
2023-04-03T00:33:42.000Z,-0.74
2023-04-03T00:34:42.000Z,-0.86
2023-04-03T00:35:42.000Z,-0.87
2023-04-03T00:36:42.000Z,-0.85
2023-04-03T00:37:43.000Z,-0.76
2023-04-03T00:38:42.000Z,-0.73
2023-04-03T00:39:42.000Z,-0.72
2023-04-03T00:40:44.000Z,-0.75
2023-04-03T00:41:42.000Z,-0.71
2023-04-03T00:42:44.000Z,-0.73
2023-04-03T00:43:42.000Z,-0.84
2023-04-03T00:45:13.000Z,-0.85
2023-04-03T00:45:48.000Z,-0.85
2023-04-03T00:46:42.000Z,-0.84
2023-04-03T00:47:42.000Z,-0.88
2023-04-03T00:48:47.000Z,-0.90
2023-04-03T00:49:43.000Z,-0.85
2023-04-03T00:50:43.000Z,-0.86
2023-04-03T00:51:43.000Z,-0.90
2023-04-03T00:52:43.000Z,-0.92
2023-04-03T00:53:47.000Z,-1.04
2023-04-03T00:54:45.000Z,-0.97
2023-04-03T00:55:43.000Z,-0.94
2023-04-03T00:56:43.000Z,-1.00
2023-04-03T00:57:45.000Z,-1.09
2023-04-03T00:58:48.000Z,-1.05
2023-04-03T00:59:48.000Z,-1.08
2023-04-03T01:00:48.000Z,-1.11
2023-04-03T01:01:43.000Z,-1.09
2023-04-03T01:02:42.000Z,-1.04
2023-04-03T01:03:42.000Z,-1.05
2023-04-03T01:04:43.000Z,-1.03
2023-04-03T01:05:42.000Z,-1.12
2023-04-03T01:06:43.000Z,-1.08
2023-04-03T01:07:43.000Z,-1.08
2023-04-03T01:08:43.000Z,-1.12
2023-04-03T01:09:44.000Z,-1.16
2023-04-03T01:10:42.000Z,-1.03
2023-04-03T01:11:42.000Z,-1.04
2023-04-03T01:12:44.000Z,-1.04
2023-04-03T01:13:42.000Z,-1.11
2023-04-03T01:14:49.000Z,-0.99
2023-04-03T01:15:42.000Z,-1.02
2023-04-03T01:16:42.000Z,-0.97
2023-04-03T01:17:51.000Z,-1.05
2023-04-03T01:18:44.000Z,-0.99
2023-04-03T01:19:50.000Z,-0.95
2023-04-03T01:21:00.000Z,-0.91
2023-04-03T01:22:00.000Z,-0.99
2023-04-03T01:23:06.000Z,-0.92
2023-04-03T01:24:05.000Z,-1.04
2023-04-03T01:24:42.000Z,-1.06
2023-04-03T01:25:46.000Z,-0.99
2023-04-03T01:26:43.000Z,-1.06
2023-04-03T01:27:42.000Z,-1.01
2023-04-03T01:28:42.000Z,-1.00
2023-04-03T01:29:43.000Z,-1.04
2023-04-03T01:30:49.000Z,-1.04
2023-04-03T01:31:52.000Z,-1.04
2023-04-03T01:32:42.000Z,-1.13
2023-04-03T01:33:42.000Z,-1.09
2023-04-03T01:34:42.000Z,-0.97
2023-04-03T01:35:42.000Z,-1.00
2023-04-03T01:36:42.000Z,-1.05
2023-04-03T01:37:42.000Z,-1.14
2023-04-03T01:38:42.000Z,-1.12
2023-04-03T01:39:42.000Z,-1.08
2023-04-03T01:40:42.000Z,-1.15
2023-04-03T01:41:43.000Z,-1.21
2023-04-03T01:42:42.000Z,-1.16
2023-04-03T01:43:43.000Z,-1.17
2023-04-03T01:44:42.000Z,-1.09
2023-04-03T01:45:42.000Z,-1.14
2023-04-03T01:46:42.000Z,-1.06
2023-04-03T01:47:42.000Z,-1.06
2023-04-03T01:48:42.000Z,-1.08
2023-04-03T01:49:42.000Z,-1.10
2023-04-03T01:50:42.000Z,-1.17
2023-04-03T01:51:42.000Z,-1.12
2023-04-03T01:52:42.000Z,-1.11
2023-04-03T01:53:43.000Z,-1.21
2023-04-03T01:54:42.000Z,-1.19
2023-04-03T01:55:42.000Z,-1.15
2023-04-03T01:56:43.000Z,-1.21
2023-04-03T01:57:42.000Z,-1.20
2023-04-03T01:58:42.000Z,-1.24
2023-04-03T01:59:43.000Z,-1.36
2023-04-03T02:00:43.000Z,-1.29
2023-04-03T02:01:45.000Z,-1.33
2023-04-03T02:02:42.000Z,-1.38
2023-04-03T02:03:42.000Z,-1.28
2023-04-03T02:04:42.000Z,-1.36
2023-04-03T02:05:43.000Z,-1.31
2023-04-03T02:06:43.000Z,-1.31
2023-04-03T02:07:42.000Z,-1.26
2023-04-03T02:08:42.000Z,-1.36
2023-04-03T02:09:43.000Z,-1.34
2023-04-03T02:10:43.000Z,-1.20
2023-04-03T02:11:42.000Z,-1.20
2023-04-03T02:12:42.000Z,-1.14
2023-04-03T02:13:42.000Z,-1.19
2023-04-03T02:14:42.000Z,-1.13
2023-04-03T02:15:43.000Z,-1.19
2023-04-03T02:16:42.000Z,-1.22
2023-04-03T02:17:43.000Z,-1.20
2023-04-03T02:18:42.000Z,-1.14
2023-04-03T02:19:43.000Z,-1.16
2023-04-03T02:20:43.000Z,-1.14
2023-04-03T02:21:42.000Z,-1.13
2023-04-03T02:22:43.000Z,-1.10
2023-04-03T02:23:43.000Z,-1.21
2023-04-03T02:24:42.000Z,-1.18
2023-04-03T02:25:42.000Z,-1.27
2023-04-03T02:26:42.000Z,-1.15
2023-04-03T02:27:42.000Z,-1.19
2023-04-03T02:28:43.000Z,-1.15
2023-04-03T02:29:43.000Z,-1.10
2023-04-03T02:30:43.000Z,-1.08
2023-04-03T02:31:42.000Z,-1.12
2023-04-03T02:32:43.000Z,-1.13
2023-04-03T02:33:43.000Z,-1.18
2023-04-03T02:34:43.000Z,-1.15
2023-04-03T02:35:42.000Z,-1.08
2023-04-03T02:36:43.000Z,-1.13
2023-04-03T02:37:42.000Z,-1.10
2023-04-03T02:38:43.000Z,-1.15
2023-04-03T02:39:42.000Z,-1.07
2023-04-03T02:40:42.000Z,-1.15
2023-04-03T02:41:42.000Z,-1.12
2023-04-03T02:42:42.000Z,-1.06
2023-04-03T02:43:42.000Z,-0.96
2023-04-03T02:44:43.000Z,-1.18
2023-04-03T02:45:43.000Z,-1.14
2023-04-03T02:46:42.000Z,-1.07
2023-04-03T02:47:42.000Z,-1.07
2023-04-03T02:48:42.000Z,-1.08
2023-04-03T02:49:46.000Z,-1.09
2023-04-03T02:50:42.000Z,-1.12
2023-04-03T02:51:43.000Z,-1.23
2023-04-03T02:52:42.000Z,-1.23
2023-04-03T02:53:43.000Z,-1.24
2023-04-03T02:54:42.000Z,-1.25
2023-04-03T02:55:43.000Z,-1.27
2023-04-03T02:56:42.000Z,-1.22
2023-04-03T02:57:42.000Z,-1.30
2023-04-03T02:58:43.000Z,-1.27
2023-04-03T02:59:44.000Z,-1.27
2023-04-03T03:00:43.000Z,-1.26
2023-04-03T03:01:42.000Z,-1.29
2023-04-03T03:02:43.000Z,-1.35
2023-04-03T03:03:42.000Z,-1.34
2023-04-03T03:04:43.000Z,-1.28
2023-04-03T03:05:42.000Z,-1.24
2023-04-03T03:06:42.000Z,-1.26
2023-04-03T03:07:42.000Z,-1.32
2023-04-03T03:08:43.000Z,-1.41
2023-04-03T03:09:42.000Z,-1.36
2023-04-03T03:10:44.000Z,-1.42
2023-04-03T03:11:42.000Z,-1.38
2023-04-03T03:12:42.000Z,-1.28
2023-04-03T03:13:43.000Z,-1.37
2023-04-03T03:14:42.000Z,-1.42
2023-04-03T03:15:42.000Z,-1.41
2023-04-03T03:16:42.000Z,-1.41
2023-04-03T03:17:43.000Z,-1.38
2023-04-03T03:18:43.000Z,-1.33
2023-04-03T03:19:43.000Z,-1.32
2023-04-03T03:20:43.000Z,-1.38
2023-04-03T03:21:42.000Z,-1.33
2023-04-03T03:22:43.000Z,-1.26
2023-04-03T03:23:42.000Z,-1.31
2023-04-03T03:24:42.000Z,-1.39
2023-04-03T03:25:42.000Z,-1.45
2023-04-03T03:26:42.000Z,-1.34
2023-04-03T03:27:42.000Z,-1.27
2023-04-03T03:28:42.000Z,-1.24
2023-04-03T03:29:42.000Z,-1.17
2023-04-03T03:30:42.000Z,-1.19
2023-04-03T03:31:41.000Z,-1.17
2023-04-03T03:32:42.000Z,-1.25
2023-04-03T03:33:42.000Z,-1.30
2023-04-03T03:34:42.000Z,-1.18
2023-04-03T03:35:42.000Z,-1.20
2023-04-03T03:36:41.000Z,-1.29
2023-04-03T03:37:42.000Z,-1.34
2023-04-03T03:38:42.000Z,-1.37
2023-04-03T03:39:41.000Z,-1.32
2023-04-03T03:40:42.000Z,-1.32
2023-04-03T03:41:42.000Z,-1.30
2023-04-03T03:42:42.000Z,-1.32
2023-04-03T03:43:42.000Z,-1.28
2023-04-03T03:44:42.000Z,-1.35
2023-04-03T03:45:42.000Z,-1.33
2023-04-03T03:46:42.000Z,-1.24
2023-04-03T03:47:42.000Z,-1.19
2023-04-03T03:48:42.000Z,-1.28
2023-04-03T03:49:42.000Z,-1.29
2023-04-03T03:50:42.000Z,-1.39
2023-04-03T03:51:42.000Z,-1.48
2023-04-03T03:52:42.000Z,-1.38
2023-04-03T03:53:42.000Z,-1.41
2023-04-03T03:54:42.000Z,-1.43
2023-04-03T03:55:42.000Z,-1.36
2023-04-03T03:56:42.000Z,-1.27
2023-04-03T03:57:42.000Z,-1.21
2023-04-03T03:58:42.000Z,-1.38
2023-04-03T03:59:43.000Z,-1.38
2023-04-03T04:00:41.000Z,-1.49
2023-04-03T04:01:42.000Z,-1.39
2023-04-03T04:02:42.000Z,-1.37
2023-04-03T04:03:42.000Z,-1.37
2023-04-03T04:04:42.000Z,-1.34
2023-04-03T04:05:42.000Z,-1.40
2023-04-03T04:06:42.000Z,-1.38
2023-04-03T04:07:42.000Z,-1.34
2023-04-03T04:08:42.000Z,-1.29
2023-04-03T04:09:42.000Z,-1.34
2023-04-03T04:10:42.000Z,-1.33
2023-04-03T04:11:42.000Z,-1.29
2023-04-03T04:12:42.000Z,-1.27
2023-04-03T04:13:42.000Z,-1.24
2023-04-03T04:14:42.000Z,-1.19
2023-04-03T04:15:42.000Z,-1.25
2023-04-03T04:16:42.000Z,-1.23
2023-04-03T04:17:42.000Z,-1.22
2023-04-03T04:18:42.000Z,-1.20
2023-04-03T04:19:41.000Z,-1.15
2023-04-03T04:20:44.000Z,-1.13
2023-04-03T04:21:42.000Z,-1.13
2023-04-03T04:22:42.000Z,-1.12
2023-04-03T04:23:42.000Z,-1.13
2023-04-03T04:24:41.000Z,-1.07
2023-04-03T04:25:46.000Z,-1.09
2023-04-03T04:26:42.000Z,-1.10
2023-04-03T04:27:42.000Z,-1.11
2023-04-03T04:28:42.000Z,-1.15
2023-04-03T04:29:42.000Z,-1.12
2023-04-03T04:30:43.000Z,-1.10
2023-04-03T04:31:42.000Z,-1.33
2023-04-03T04:32:42.000Z,-1.25
2023-04-03T04:33:42.000Z,-1.13
2023-04-03T04:34:42.000Z,-1.11
2023-04-03T04:35:43.000Z,-1.11
2023-04-03T04:36:43.000Z,-1.19
2023-04-03T04:37:42.000Z,-1.23
2023-04-03T04:38:42.000Z,-1.18
2023-04-03T04:39:42.000Z,-1.10
2023-04-03T04:40:42.000Z,-1.07
2023-04-03T04:41:42.000Z,-1.12
2023-04-03T04:42:42.000Z,-1.02
2023-04-03T04:43:42.000Z,-0.97
2023-04-03T04:44:42.000Z,-1.06
2023-04-03T04:45:42.000Z,-0.99
2023-04-03T04:46:42.000Z,-1.14
2023-04-03T04:47:42.000Z,-1.04
2023-04-03T04:48:43.000Z,-1.10
2023-04-03T04:49:42.000Z,-1.14
2023-04-03T04:50:42.000Z,-1.04
2023-04-03T04:51:42.000Z,-1.10
2023-04-03T04:52:42.000Z,-1.04
2023-04-03T04:53:43.000Z,-0.96
2023-04-03T04:54:42.000Z,-1.14
2023-04-03T04:55:42.000Z,-1.08
2023-04-03T04:56:42.000Z,-1.08
2023-04-03T04:57:41.000Z,-1.06
2023-04-03T04:58:42.000Z,-1.10
2023-04-03T04:59:41.000Z,-1.12
2023-04-03T05:00:42.000Z,-1.06
2023-04-03T05:01:42.000Z,-1.00
2023-04-03T05:02:42.000Z,-0.96
2023-04-03T05:03:42.000Z,-0.93
2023-04-03T05:04:42.000Z,-1.01
2023-04-03T05:05:42.000Z,-0.97
2023-04-03T05:06:41.000Z,-0.95
2023-04-03T05:07:41.000Z,-0.97
2023-04-03T05:08:41.000Z,-0.97
2023-04-03T05:09:41.000Z,-0.96
2023-04-03T05:10:44.000Z,-0.87
2023-04-03T05:11:42.000Z,-0.93
2023-04-03T05:12:41.000Z,-0.95
2023-04-03T05:13:42.000Z,-0.99
2023-04-03T05:14:42.000Z,-0.98
2023-04-03T05:15:42.000Z,-0.93
2023-04-03T05:16:41.000Z,-0.92
2023-04-03T05:17:41.000Z,-0.82
2023-04-03T05:18:41.000Z,-0.81
2023-04-03T05:19:41.000Z,-0.80
2023-04-03T05:20:42.000Z,-0.76
2023-04-03T05:21:41.000Z,-0.77
2023-04-03T05:22:42.000Z,-0.72
2023-04-03T05:23:41.000Z,-0.77
2023-04-03T05:24:41.000Z,-0.73
2023-04-03T05:25:45.000Z,-0.72
2023-04-03T05:26:42.000Z,-0.67
2023-04-03T05:27:42.000Z,-0.67
2023-04-03T05:28:42.000Z,-0.63
2023-04-03T05:29:43.000Z,-0.70
2023-04-03T05:30:42.000Z,-0.76
2023-04-03T05:31:42.000Z,-0.79
2023-04-03T05:32:42.000Z,-0.73
2023-04-03T05:33:42.000Z,-0.76
2023-04-03T05:34:42.000Z,-0.70
2023-04-03T05:35:43.000Z,-0.67
2023-04-03T05:36:42.000Z,-0.71
2023-04-03T05:37:42.000Z,-0.72
2023-04-03T05:38:42.000Z,-0.63
2023-04-03T05:39:42.000Z,-0.67
2023-04-03T05:40:42.000Z,-0.82
2023-04-03T05:41:42.000Z,-0.81
2023-04-03T05:42:42.000Z,-0.84
2023-04-03T05:43:42.000Z,-0.84
2023-04-03T05:44:42.000Z,-0.77
2023-04-03T05:45:43.000Z,-0.79
2023-04-03T05:46:42.000Z,-0.72
2023-04-03T05:47:42.000Z,-0.76
2023-04-03T05:48:43.000Z,-0.69
2023-04-03T05:49:43.000Z,-0.56
2023-04-03T05:50:43.000Z,-0.55
2023-04-03T05:51:43.000Z,-0.51
2023-04-03T05:52:46.000Z,-0.54
2023-04-03T05:53:43.000Z,-0.58
2023-04-03T05:54:42.000Z,-0.58
2023-04-03T05:55:42.000Z,-0.56
2023-04-03T05:56:42.000Z,-0.54
2023-04-03T05:57:42.000Z,-0.50
2023-04-03T05:58:42.000Z,-0.48
2023-04-03T05:59:42.000Z,-0.48
2023-04-03T06:00:42.000Z,-0.42
2023-04-03T06:01:42.000Z,-0.44
2023-04-03T06:02:42.000Z,-0.46
2023-04-03T06:03:41.000Z,-0.42
2023-04-03T06:04:42.000Z,-0.33
2023-04-03T06:05:42.000Z,-0.39
2023-04-03T06:06:52.000Z,-0.45
2023-04-03T06:07:42.000Z,-0.57
2023-04-03T06:08:42.000Z,-0.53
2023-04-03T06:09:42.000Z,-0.47
2023-04-03T06:10:41.000Z,-0.38
2023-04-03T06:11:42.000Z,-0.39
2023-04-03T06:12:42.000Z,-0.36
2023-04-03T06:13:41.000Z,-0.37
2023-04-03T06:14:42.000Z,-0.38
2023-04-03T06:15:42.000Z,-0.45
2023-04-03T06:16:43.000Z,-0.46
2023-04-03T06:17:42.000Z,-0.47
2023-04-03T06:18:42.000Z,-0.45
2023-04-03T06:19:42.000Z,-0.77
2023-04-03T06:20:41.000Z,-0.60
2023-04-03T06:21:41.000Z,-0.57
2023-04-03T06:22:42.000Z,-0.53
2023-04-03T06:23:42.000Z,-0.50
2023-04-03T06:24:42.000Z,-0.49
2023-04-03T06:25:41.000Z,-0.63
2023-04-03T06:26:42.000Z,-0.58
2023-04-03T06:27:42.000Z,-0.52
2023-04-03T06:28:41.000Z,-0.49
2023-04-03T06:29:42.000Z,-0.45
2023-04-03T06:30:41.000Z,-0.47
2023-04-03T06:31:42.000Z,-0.45
2023-04-03T06:32:42.000Z,-0.41
2023-04-03T06:33:41.000Z,-0.58
2023-04-03T06:34:41.000Z,-0.47
2023-04-03T06:35:41.000Z,-0.43
2023-04-03T06:36:42.000Z,-0.32
2023-04-03T06:37:41.000Z,-0.34
2023-04-03T06:38:41.000Z,-0.31
2023-04-03T06:39:41.000Z,-0.30
2023-04-03T06:40:42.000Z,-0.32
2023-04-03T06:41:42.000Z,-0.41
2023-04-03T06:42:41.000Z,-0.28
2023-04-03T06:43:44.000Z,-0.24
2023-04-03T06:44:42.000Z,-0.21
2023-04-03T06:45:42.000Z,-0.22
2023-04-03T06:46:43.000Z,-0.22
2023-04-03T06:47:41.000Z,-0.15
2023-04-03T06:48:42.000Z,-0.10
2023-04-03T06:49:42.000Z,-0.12
2023-04-03T06:50:41.000Z,-0.12
2023-04-03T06:51:41.000Z,-0.09
2023-04-03T06:52:41.000Z,-0.08
2023-04-03T06:53:41.000Z,-0.03
2023-04-03T06:54:41.000Z,-0.00
2023-04-03T06:55:41.000Z,-0.01
2023-04-03T06:56:41.000Z,0.08
2023-04-03T06:57:41.000Z,0.14
2023-04-03T06:58:42.000Z,0.18
2023-04-03T06:59:42.000Z,0.34
2023-04-03T07:00:42.000Z,0.54
2023-04-03T07:01:41.000Z,0.49
2023-04-03T07:02:41.000Z,0.49
2023-04-03T07:03:42.000Z,0.42
2023-04-03T07:04:41.000Z,0.39
2023-04-03T07:05:44.000Z,0.51
2023-04-03T07:06:42.000Z,0.42
2023-04-03T07:07:41.000Z,0.53
2023-04-03T07:08:42.000Z,0.61
2023-04-03T07:09:42.000Z,0.51
2023-04-03T07:10:42.000Z,0.51
2023-04-03T07:11:42.000Z,0.50
2023-04-03T07:12:41.000Z,0.57
2023-04-03T07:13:42.000Z,0.44
2023-04-03T07:14:42.000Z,0.53
2023-04-03T07:15:42.000Z,0.61
2023-04-03T07:16:41.000Z,0.67
2023-04-03T07:17:42.000Z,0.59
2023-04-03T07:18:41.000Z,0.67
2023-04-03T07:19:42.000Z,0.73
2023-04-03T07:20:42.000Z,0.66
2023-04-03T07:21:43.000Z,0.71
2023-04-03T07:22:41.000Z,0.63
2023-04-03T07:23:41.000Z,0.59
2023-04-03T07:24:42.000Z,0.64
2023-04-03T07:25:46.000Z,0.62
2023-04-03T07:26:42.000Z,0.49
2023-04-03T07:27:42.000Z,0.47
2023-04-03T07:28:43.000Z,0.22
2023-04-03T07:29:43.000Z,0.33
2023-04-03T07:30:49.000Z,0.39
2023-04-03T07:31:44.000Z,0.31
2023-04-03T07:32:42.000Z,0.35
2023-04-03T07:33:44.000Z,0.33
2023-04-03T07:34:43.000Z,0.37
2023-04-03T07:35:43.000Z,0.11
2023-04-03T07:36:42.000Z,0.11
2023-04-03T07:37:42.000Z,0.22
2023-04-03T07:38:42.000Z,0.38
2023-04-03T07:39:45.000Z,0.40
2023-04-03T07:40:49.000Z,0.25
2023-04-03T07:41:42.000Z,0.35
2023-04-03T07:42:42.000Z,0.32
2023-04-03T07:43:42.000Z,-0.01
2023-04-03T07:44:43.000Z,0.11
2023-04-03T07:45:43.000Z,0.27
2023-04-03T07:46:43.000Z,0.12
2023-04-03T07:47:42.000Z,-0.11
2023-04-03T07:48:42.000Z,-0.13
2023-04-03T07:49:43.000Z,0.07
2023-04-03T07:50:43.000Z,0.33
2023-04-03T07:51:42.000Z,0.18
2023-04-03T07:52:42.000Z,-0.15
2023-04-03T07:53:42.000Z,0.04
2023-04-03T07:54:42.000Z,0.11
2023-04-03T07:55:48.000Z,0.02
2023-04-03T07:56:43.000Z,0.12
2023-04-03T07:57:42.000Z,0.06
2023-04-03T07:58:42.000Z,-0.44
2023-04-03T07:59:42.000Z,-0.26
2023-04-03T08:00:42.000Z,-0.12
2023-04-03T08:01:41.000Z,0.06
2023-04-03T08:02:42.000Z,-0.10
2023-04-03T08:03:41.000Z,-0.11
2023-04-03T08:04:41.000Z,-0.16
2023-04-03T08:05:44.000Z,-0.23
2023-04-03T08:06:41.000Z,-0.15
2023-04-03T08:07:41.000Z,-0.11
2023-04-03T08:08:41.000Z,0.14
2023-04-03T08:09:41.000Z,0.00
2023-04-03T08:10:41.000Z,-0.25
2023-04-03T08:11:42.000Z,-0.16
2023-04-03T08:12:45.000Z,-0.37
2023-04-03T08:13:42.000Z,-0.52
2023-04-03T08:14:41.000Z,-0.30
2023-04-03T08:15:41.000Z,0.08
2023-04-03T08:16:42.000Z,0.24
2023-04-03T08:17:41.000Z,0.10
2023-04-03T08:18:41.000Z,0.31
2023-04-03T08:19:41.000Z,0.36
2023-04-03T08:20:42.000Z,0.44
2023-04-03T08:21:41.000Z,0.25
2023-04-03T08:22:41.000Z,0.10
2023-04-03T08:23:41.000Z,0.12
2023-04-03T08:24:41.000Z,0.18
2023-04-03T08:25:42.000Z,-0.15
2023-04-03T08:26:41.000Z,-0.05
2023-04-03T08:27:41.000Z,-0.29
2023-04-03T08:28:41.000Z,-0.27
2023-04-03T08:29:41.000Z,-0.16
2023-04-03T08:30:41.000Z,-0.66
2023-04-03T08:31:42.000Z,-0.37
2023-04-03T08:32:42.000Z,-0.35
2023-04-03T08:33:42.000Z,-0.27
2023-04-03T08:34:41.000Z,-0.33
2023-04-03T08:35:42.000Z,-0.68
2023-04-03T08:36:42.000Z,-0.51
2023-04-03T08:37:41.000Z,-0.21
2023-04-03T08:38:42.000Z,-0.12
2023-04-03T08:39:42.000Z,-0.79
2023-04-03T08:40:44.000Z,-0.48
2023-04-03T08:41:43.000Z,-0.24
2023-04-03T08:42:52.000Z,-0.52
2023-04-03T08:44:14.000Z,-0.39
2023-04-03T08:45:02.000Z,-0.73
2023-04-03T08:45:51.000Z,-0.73
2023-04-03T08:46:52.000Z,-0.25
2023-04-03T08:47:54.000Z,-0.48
2023-04-03T08:48:42.000Z,-0.76
2023-04-03T08:50:03.000Z,-0.87
2023-04-03T08:50:46.000Z,-0.89
2023-04-03T08:51:47.000Z,-0.85
2023-04-03T08:52:46.000Z,-0.44
2023-04-03T08:53:57.000Z,-0.34
2023-04-03T08:54:58.000Z,-0.03
2023-04-03T08:55:45.000Z,-0.21
2023-04-03T08:56:41.000Z,-0.18
2023-04-03T08:57:44.000Z,-0.33
2023-04-03T08:58:48.000Z,-0.19
2023-04-03T08:59:42.000Z,-0.12
2023-04-03T09:00:52.000Z,-0.20
2023-04-03T09:01:43.000Z,-0.68
2023-04-03T09:02:49.000Z,-0.57
2023-04-03T09:03:42.000Z,-0.72
2023-04-03T09:04:42.000Z,-0.63
2023-04-03T09:06:03.000Z,-0.79
2023-04-03T09:06:49.000Z,-0.78
2023-04-03T09:07:47.000Z,-1.01
2023-04-03T09:08:52.000Z,-0.83
2023-04-03T09:09:42.000Z,-0.88
2023-04-03T09:10:42.000Z,-0.52
2023-04-03T09:11:52.000Z,-0.86
2023-04-03T09:12:48.000Z,-0.80
2023-04-03T09:13:52.000Z,-0.80
2023-04-03T09:15:05.000Z,-0.98
2023-04-03T09:15:44.000Z,-0.98
2023-04-03T09:16:58.000Z,-1.09
2023-04-03T09:17:59.000Z,-0.99
2023-04-03T09:18:48.000Z,-1.15
2023-04-03T09:20:00.000Z,-1.11
2023-04-03T09:20:55.000Z,-1.06
2023-04-03T09:21:42.000Z,-0.84
2023-04-03T09:22:43.000Z,-0.88
2023-04-03T09:23:47.000Z,-0.90
2023-04-03T09:24:46.000Z,-1.14
2023-04-03T09:25:43.000Z,-0.92
2023-04-03T09:26:57.000Z,-0.60
2023-04-03T09:27:42.000Z,-0.36
2023-04-03T09:28:43.000Z,-0.58
2023-04-03T09:29:53.000Z,-0.23
2023-04-03T09:30:42.000Z,-0.18
2023-04-03T09:31:44.000Z,-0.26
2023-04-03T09:32:45.000Z,-0.47
2023-04-03T09:33:42.000Z,-0.31
2023-04-03T09:34:43.000Z,-0.35
2023-04-03T09:35:42.000Z,-0.60
2023-04-03T09:36:50.000Z,-1.08
2023-04-03T09:37:45.000Z,-0.79
2023-04-03T09:38:42.000Z,-0.78
2023-04-03T09:39:49.000Z,-0.78
2023-04-03T09:40:44.000Z,-1.10
2023-04-03T09:42:00.000Z,-1.11
2023-04-03T09:42:42.000Z,-0.89
2023-04-03T09:43:53.000Z,-1.14
2023-04-03T09:44:54.000Z,-0.61
2023-04-03T09:45:43.000Z,-0.56
2023-04-03T09:46:42.000Z,-0.70
2023-04-03T09:47:44.000Z,-1.09
2023-04-03T09:49:05.000Z,-0.71
2023-04-03T09:49:42.000Z,-0.84
2023-04-03T09:50:54.000Z,-1.07
2023-04-03T09:51:43.000Z,-0.98
2023-04-03T09:52:45.000Z,-0.81
2023-04-03T09:53:43.000Z,-1.00
2023-04-03T09:54:42.000Z,-0.95
2023-04-03T09:55:43.000Z,-1.09
2023-04-03T09:56:49.000Z,-1.12
2023-04-03T09:57:43.000Z,-1.12
2023-04-03T09:58:48.000Z,-1.23
2023-04-03T09:59:46.000Z,-1.41
2023-04-03T10:00:42.000Z,-1.43
2023-04-03T10:01:59.000Z,-1.56
2023-04-03T10:02:42.000Z,-1.59
2023-04-03T10:04:05.000Z,-1.41
2023-04-03T10:04:41.000Z,-1.13
2023-04-03T10:05:41.000Z,-0.80
2023-04-03T10:06:51.000Z,-0.90
2023-04-03T10:07:42.000Z,-0.80
2023-04-03T10:08:41.000Z,-0.87
2023-04-03T10:09:54.000Z,-1.01
2023-04-03T10:10:44.000Z,-1.08
2023-04-03T10:11:51.000Z,-0.78
2023-04-03T10:12:41.000Z,-0.88
2023-04-03T10:13:50.000Z,-0.82
2023-04-03T10:14:51.000Z,-0.61
2023-04-03T10:15:50.000Z,-1.06
2023-04-03T10:16:50.000Z,-1.44
2023-04-03T10:17:55.000Z,-1.18
2023-04-03T10:18:56.000Z,-1.15
2023-04-03T10:19:55.000Z,-1.19
2023-04-03T10:20:45.000Z,-1.31
2023-04-03T10:22:02.000Z,-1.42
2023-04-03T10:22:51.000Z,-1.27
2023-04-03T10:23:49.000Z,-1.56
2023-04-03T10:25:04.000Z,-1.51
2023-04-03T10:26:07.000Z,-1.43
2023-04-03T10:27:07.000Z,-1.70
2023-04-03T10:27:54.000Z,-1.45
2023-04-03T10:28:56.000Z,-1.75
2023-04-03T10:29:54.000Z,-2.21
2023-04-03T10:30:56.000Z,-1.80
2023-04-03T10:31:53.000Z,-1.73
2023-04-03T10:32:51.000Z,-1.95
2023-04-03T10:33:55.000Z,-2.26
2023-04-03T10:34:45.000Z,-2.10
2023-04-03T10:35:56.000Z,-1.95
2023-04-03T10:37:04.000Z,-2.08
2023-04-03T10:37:56.000Z,-1.99
2023-04-03T10:38:58.000Z,-2.26
2023-04-03T10:39:54.000Z,-2.42
2023-04-03T10:40:58.000Z,-2.24
2023-04-03T10:42:09.000Z,-1.74
2023-04-03T10:42:54.000Z,-1.62
2023-04-03T10:43:55.000Z,-1.55
2023-04-03T10:44:54.000Z,-1.60
2023-04-03T10:45:56.000Z,-1.60
2023-04-03T10:46:51.000Z,-1.42
2023-04-03T10:48:02.000Z,-1.73
2023-04-03T10:48:54.000Z,-1.45
2023-04-03T10:49:56.000Z,-1.78
2023-04-03T10:50:58.000Z,-1.69
2023-04-03T10:51:51.000Z,-2.00
2023-04-03T10:53:06.000Z,-2.05
2023-04-03T10:53:53.000Z,-1.77
2023-04-03T10:54:56.000Z,-1.38
2023-04-03T10:55:59.000Z,-1.68
2023-04-03T10:56:56.000Z,-1.51
2023-04-03T10:57:45.000Z,-1.48
2023-04-03T10:58:51.000Z,-1.63
2023-04-03T10:59:49.000Z,-0.93
2023-04-03T11:00:50.000Z,-1.32
2023-04-03T11:01:48.000Z,-1.51
2023-04-03T11:02:59.000Z,-1.77
2023-04-03T11:03:48.000Z,-1.90
2023-04-03T11:05:13.000Z,-1.89
2023-04-03T11:05:48.000Z,-1.73
2023-04-03T11:06:53.000Z,-1.53
2023-04-03T11:07:51.000Z,-1.31
2023-04-03T11:08:50.000Z,-1.30
2023-04-03T11:09:47.000Z,-1.27
2023-04-03T11:10:49.000Z,-1.13
2023-04-03T11:11:44.000Z,-1.03
2023-04-03T11:12:48.000Z,-1.07
2023-04-03T11:14:04.000Z,-1.16
2023-04-03T11:14:46.000Z,-1.41
2023-04-03T11:15:45.000Z,-1.19
2023-04-03T11:16:47.000Z,-1.58
2023-04-03T11:17:57.000Z,-1.61
2023-04-03T11:18:51.000Z,-1.16
2023-04-03T11:20:03.000Z,-1.47
2023-04-03T11:20:53.000Z,-1.15
2023-04-03T11:21:51.000Z,-1.03
2023-04-03T11:22:50.000Z,-1.03
2023-04-03T11:23:44.000Z,-1.21
2023-04-03T11:24:54.000Z,-1.03
2023-04-03T11:25:48.000Z,-0.74
2023-04-03T11:26:44.000Z,-1.32
2023-04-03T11:27:48.000Z,-1.22
2023-04-03T11:28:44.000Z,-0.84
2023-04-03T11:29:46.000Z,-1.07
2023-04-03T11:30:53.000Z,-1.18
2023-04-03T11:32:06.000Z,-1.08
2023-04-03T11:33:07.000Z,-1.21
2023-04-03T11:33:53.000Z,-1.41
2023-04-03T11:34:45.000Z,-1.31
2023-04-03T11:35:46.000Z,-1.47
2023-04-03T11:36:48.000Z,-1.53
2023-04-03T11:37:49.000Z,-1.59
2023-04-03T11:38:45.000Z,-1.65
2023-04-03T11:39:53.000Z,-1.47
2023-04-03T11:40:43.000Z,-1.71
2023-04-03T11:41:43.000Z,-1.52
2023-04-03T11:42:50.000Z,-1.52
2023-04-03T11:43:53.000Z,-1.48
2023-04-03T11:44:43.000Z,-1.67
2023-04-03T11:45:51.000Z,-1.53
2023-04-03T11:46:52.000Z,-1.26
2023-04-03T11:48:03.000Z,-1.07
2023-04-03T11:48:46.000Z,-1.59
2023-04-03T11:49:53.000Z,-1.86
2023-04-03T11:50:45.000Z,-1.97
2023-04-03T11:51:43.000Z,-1.96
2023-04-03T11:53:13.000Z,-1.85
2023-04-03T11:53:43.000Z,-1.90
2023-04-03T11:54:46.000Z,-1.73
2023-04-03T11:55:51.000Z,-1.97
2023-04-03T11:56:43.000Z,-2.00
2023-04-03T11:58:00.000Z,-1.79
2023-04-03T11:59:03.000Z,-1.65
2023-04-03T11:59:43.000Z,-1.91
2023-04-03T12:00:55.000Z,-1.73
2023-04-03T12:01:58.000Z,-1.66
2023-04-03T12:02:43.000Z,-1.58
2023-04-03T12:04:03.000Z,-1.33
2023-04-03T12:05:03.000Z,-1.34
2023-04-03T12:05:43.000Z,-1.45
2023-04-03T12:06:57.000Z,-1.16
2023-04-03T12:08:03.000Z,-1.10
2023-04-03T12:08:49.000Z,-1.09
2023-04-03T12:09:57.000Z,-1.16
2023-04-03T12:11:03.000Z,-1.64
2023-04-03T12:11:43.000Z,-1.49
2023-04-03T12:12:55.000Z,-1.56
2023-04-03T12:14:03.000Z,-1.37
2023-04-03T12:14:43.000Z,-1.27
2023-04-03T12:15:49.000Z,-1.43
2023-04-03T12:16:45.000Z,-1.63
2023-04-03T12:17:43.000Z,-1.47
2023-04-03T12:18:57.000Z,-1.50
2023-04-03T12:19:46.000Z,-1.41
2023-04-03T12:20:53.000Z,-1.30
2023-04-03T12:22:09.000Z,-1.24
2023-04-03T12:23:03.000Z,-1.35
2023-04-03T12:23:53.000Z,-1.33
2023-04-03T12:24:46.000Z,-1.14
2023-04-03T12:25:50.000Z,-1.12
2023-04-03T12:27:13.000Z,-1.31
2023-04-03T12:27:43.000Z,-1.60
2023-04-03T12:28:43.000Z,-1.89
2023-04-03T12:29:54.000Z,-1.68
2023-04-03T12:30:44.000Z,-1.47
2023-04-03T12:31:56.000Z,-1.16
2023-04-03T12:32:56.000Z,-1.28
2023-04-03T12:34:02.000Z,-1.59
2023-04-03T12:34:57.000Z,-1.37
2023-04-03T12:36:03.000Z,-1.23
2023-04-03T12:36:59.000Z,-1.30
2023-04-03T12:38:03.000Z,-1.48
2023-04-03T12:38:53.000Z,-1.60
2023-04-03T12:39:53.000Z,-1.51
2023-04-03T12:41:03.000Z,-1.86
2023-04-03T12:42:16.000Z,-1.58
2023-04-03T12:42:57.000Z,-1.62
2023-04-03T12:44:03.000Z,-1.62
2023-04-03T12:45:02.000Z,-1.65
2023-04-03T12:45:48.000Z,-1.56
2023-04-03T12:46:46.000Z,-1.78
2023-04-03T12:47:44.000Z,-1.59
2023-04-03T12:48:52.000Z,-1.49
2023-04-03T12:49:44.000Z,-1.49
2023-04-03T12:50:48.000Z,-1.33
2023-04-03T12:51:46.000Z,-1.39
2023-04-03T12:52:55.000Z,-1.41
2023-04-03T12:53:44.000Z,-1.33
2023-04-03T12:54:45.000Z,-1.26